createdAt,value
2022-11-29T00:00:03.013Z,93537.81
2022-11-29T00:05:08.334Z,93536.16
2022-11-29T00:10:16.919Z,93553.42
2022-11-29T00:15:23.555Z,93542.20
2022-11-29T00:20:30.384Z,93537.41
2022-11-29T00:25:37.224Z,93533.48
2022-11-29T00:30:44.011Z,93531.58
2022-11-29T00:35:51.041Z,93525.73
2022-11-29T00:40:57.994Z,93528.25
2022-11-29T00:46:06.721Z,93526.97
2022-11-29T00:51:13.980Z,93521.53
2022-11-29T00:56:21.191Z,93530.94
2022-11-29T01:01:28.140Z,93532.77
2022-11-29T01:06:35.075Z,93534.51
2022-11-29T01:11:42.180Z,93530.52
2022-11-29T01:16:49.141Z,93531.46
2022-11-29T01:21:56.527Z,93526.73
2022-11-29T01:27:03.366Z,93527.82
2022-11-29T01:32:10.305Z,93523.94
2022-11-29T01:37:17.303Z,93521.37
2022-11-29T01:42:24.034Z,93522.75
2022-11-29T01:47:32.239Z,93526.14
2022-11-29T01:52:40.314Z,93534.48
2022-11-29T01:57:48.227Z,93524.70
2022-11-29T02:02:59.243Z,93522.44
2022-11-29T02:08:07.493Z,93526.14
2022-11-29T02:13:30.303Z,93530.08
2022-11-29T02:19:06.837Z,93526.42
2022-11-29T02:24:52.126Z,93521.09
2022-11-29T02:30:17.655Z,93524.55
2022-11-29T02:36:03.109Z,93527.11
2022-11-29T02:42:02.389Z,93520.84
2022-11-29T02:47:40.160Z,93521.23
2022-11-29T02:53:03.218Z,93526.00
2022-11-29T02:58:50.560Z,93530.22
2022-11-29T03:04:07.994Z,93534.55
2022-11-29T03:09:31.139Z,93529.48
2022-11-29T03:14:53.921Z,93535.79
2022-11-29T03:20:25.833Z,93534.99
2022-11-29T03:25:39.805Z,93537.81
2022-11-29T03:30:51.018Z,93534.17
2022-11-29T03:36:24.346Z,93542.36
2022-11-29T03:41:38.433Z,93542.34
2022-11-29T03:47:16.231Z,93547.04
2022-11-29T03:52:48.142Z,93542.91
2022-11-29T03:58:32.426Z,93551.09
2022-11-29T04:04:16.489Z,93548.95
2022-11-29T04:10:09.593Z,93555.30
2022-11-29T04:15:35.281Z,93548.70
2022-11-29T04:21:08.758Z,93561.77
2022-11-29T04:27:09.312Z,93565.41
2022-11-29T04:32:45.453Z,93572.70
2022-11-29T04:38:14.070Z,93577.64
2022-11-29T04:43:50.409Z,93575.47
2022-11-29T04:49:19.176Z,93582.79
2022-11-29T04:54:54.605Z,93588.11
2022-11-29T05:00:17.375Z,93585.68
2022-11-29T05:05:43.963Z,93593.31
2022-11-29T05:11:25.014Z,93595.41
2022-11-29T05:17:00.034Z,93598.80
2022-11-29T05:22:47.158Z,93596.67
2022-11-29T05:28:10.653Z,93594.56
2022-11-29T05:33:48.819Z,93595.52
2022-11-29T05:39:05.745Z,93598.53
2022-11-29T05:44:42.175Z,93600.41
2022-11-29T05:50:13.664Z,93611.81
2022-11-29T05:55:27.830Z,93606.42
2022-11-29T06:01:11.676Z,93611.70
2022-11-29T06:06:40.007Z,93615.78
2022-11-29T06:12:03.159Z,93609.13
2022-11-29T06:17:35.702Z,93622.33
2022-11-29T06:23:21.283Z,93617.48
2022-11-29T06:28:41.290Z,93619.99
2022-11-29T06:34:04.228Z,93624.85
2022-11-29T06:39:12.475Z,93625.21
2022-11-29T06:44:19.509Z,93623.45
2022-11-29T06:49:42.272Z,93625.64
2022-11-29T06:55:11.286Z,93633.69
2022-11-29T07:00:24.302Z,93638.80
2022-11-29T07:05:37.023Z,93647.11
2022-11-29T07:10:44.126Z,93649.89
2022-11-29T07:16:19.029Z,93652.72
2022-11-29T07:21:41.710Z,93660.51
2022-11-29T07:27:13.761Z,93669.89
2022-11-29T07:32:51.392Z,93671.48
2022-11-29T07:38:16.509Z,93659.54
2022-11-29T07:43:36.270Z,93674.52
2022-11-29T07:48:42.895Z,93680.45
2022-11-29T07:53:49.666Z,93677.80
2022-11-29T07:58:56.491Z,93682.85
2022-11-29T08:04:03.268Z,93686.44
2022-11-29T08:09:09.983Z,93688.33
2022-11-29T08:14:16.671Z,93688.08
2022-11-29T08:19:23.404Z,93692.13
2022-11-29T08:24:30.100Z,93687.19
2022-11-29T08:29:36.797Z,93688.08
2022-11-29T08:34:43.629Z,93690.23
2022-11-29T08:39:50.474Z,93684.88
2022-11-29T08:44:57.184Z,93692.09
2022-11-29T08:50:05.587Z,93690.24
2022-11-29T08:55:12.230Z,93694.39
2022-11-29T09:00:19.715Z,93702.05
2022-11-29T09:05:26.543Z,93699.53
2022-11-29T09:10:33.210Z,93708.45
2022-11-29T09:15:42.214Z,93705.17
2022-11-29T09:20:48.906Z,93708.23
2022-11-29T09:25:56.148Z,93709.59
2022-11-29T09:31:14.761Z,93712.58
2022-11-29T09:36:27.858Z,93708.61
2022-11-29T09:41:55.423Z,93711.78
2022-11-29T09:47:26.081Z,93701.89
2022-11-29T09:53:05.336Z,93709.77
2022-11-29T09:58:21.751Z,93699.97
2022-11-29T10:03:47.291Z,93696.86
2022-11-29T10:09:07.092Z,93697.73
2022-11-29T10:14:24.004Z,93690.27
2022-11-29T10:19:39.669Z,93687.94
2022-11-29T10:24:50.401Z,93683.97
2022-11-29T10:29:59.499Z,93676.33
2022-11-29T10:35:15.395Z,93663.86
2022-11-29T10:40:26.591Z,93661.96
2022-11-29T10:45:50.908Z,93656.84
2022-11-29T10:50:57.697Z,93666.30
2022-11-29T10:56:25.698Z,93666.19
2022-11-29T11:01:38.827Z,93653.02
2022-11-29T11:06:56.672Z,93668.36
2022-11-29T11:12:16.609Z,93668.05
2022-11-29T11:17:33.733Z,93668.86
2022-11-29T11:22:41.027Z,93688.68
2022-11-29T11:27:47.806Z,93671.08
2022-11-29T11:33:21.538Z,93664.56
2022-11-29T11:38:28.246Z,93665.61
2022-11-29T11:43:36.135Z,93679.17
2022-11-29T11:48:43.560Z,93672.53
2022-11-29T11:53:54.136Z,93678.88
2022-11-29T11:59:00.928Z,93681.98
2022-11-29T12:04:12.119Z,93679.73
2022-11-29T12:09:38.400Z,93686.49
2022-11-29T12:15:11.091Z,93685.44
2022-11-29T12:20:34.124Z,93683.44
2022-11-29T12:26:06.120Z,93683.60
2022-11-29T12:31:47.053Z,93683.23
2022-11-29T12:37:24.953Z,93679.73
2022-11-29T12:42:56.965Z,93678.15
2022-11-29T12:48:14.823Z,93676.40
2022-11-29T12:53:42.202Z,93682.85
2022-11-29T12:59:17.206Z,93673.78
2022-11-29T13:04:59.415Z,93686.72
2022-11-29T13:10:31.640Z,93689.26
2022-11-29T13:15:58.006Z,93686.83
2022-11-29T13:21:21.775Z,93695.73
2022-11-29T13:26:31.198Z,93702.52
2022-11-29T13:31:38.753Z,93701.64
2022-11-29T13:36:55.801Z,93705.78
2022-11-29T13:42:51.716Z,93704.99
2022-11-29T13:48:01.865Z,93701.95
2022-11-29T13:53:15.706Z,93706.00
2022-11-29T13:58:39.061Z,93710.81
2022-11-29T14:03:51.319Z,93711.92
2022-11-29T14:09:21.387Z,93723.98
2022-11-29T14:14:45.071Z,93725.63
2022-11-29T14:19:52.302Z,93729.77
2022-11-29T14:25:11.767Z,93737.68
2022-11-29T14:30:49.701Z,93750.48
2022-11-29T14:36:18.935Z,93733.89
2022-11-29T14:41:46.067Z,93727.77
2022-11-29T14:47:08.458Z,93726.73
2022-11-29T14:52:25.431Z,93725.19
2022-11-29T14:57:57.118Z,93719.16
2022-11-29T15:03:26.380Z,93720.41
2022-11-29T15:08:52.484Z,93729.45
2022-11-29T15:14:29.471Z,93717.47
2022-11-29T15:20:08.151Z,93721.01
2022-11-29T15:25:24.926Z,93720.05
2022-11-29T15:30:41.236Z,93723.23
2022-11-29T15:36:00.984Z,93723.36
2022-11-29T15:41:09.897Z,93719.05
2022-11-29T15:46:29.234Z,93718.86
2022-11-29T15:51:41.467Z,93720.62
2022-11-29T15:57:01.748Z,93727.58
2022-11-29T16:02:33.100Z,93718.61
2022-11-29T16:07:42.481Z,93715.23
2022-11-29T16:13:03.553Z,93710.90
2022-11-29T16:18:20.677Z,93725.32
2022-11-29T16:23:38.012Z,93730.86
2022-11-29T16:28:49.186Z,93741.36
2022-11-29T16:33:56.621Z,93731.66
2022-11-29T16:39:22.101Z,93737.01
2022-11-29T16:45:03.760Z,93735.83
2022-11-29T16:50:21.749Z,93740.62
2022-11-29T16:55:28.668Z,93747.86
2022-11-29T17:00:36.374Z,93744.08
2022-11-29T17:05:44.927Z,93741.65
2022-11-29T17:10:51.927Z,93747.53
2022-11-29T17:15:59.111Z,93753.39
2022-11-29T17:21:06.555Z,93741.47
2022-11-29T17:26:13.294Z,93749.14
2022-11-29T17:31:23.886Z,93747.78
2022-11-29T17:36:31.610Z,93760.62
2022-11-29T17:41:38.782Z,93773.66
2022-11-29T17:46:45.702Z,93779.26
2022-11-29T17:51:53.797Z,93611.33
2022-11-29T17:57:01.982Z,93792.11
2022-11-29T18:02:10.974Z,93788.05
2022-11-29T18:07:19.130Z,93796.00
2022-11-29T18:12:26.119Z,93798.18
2022-11-29T18:17:33.204Z,93796.63
2022-11-29T18:22:40.269Z,93800.95
2022-11-29T18:27:49.012Z,93796.80
2022-11-29T18:32:55.837Z,93795.94
2022-11-29T18:38:17.860Z,93800.37
2022-11-29T18:43:11.450Z,93793.92
2022-11-29T18:48:18.572Z,93798.64
2022-11-29T18:53:25.324Z,93798.23
2022-11-29T18:58:32.786Z,93797.28
2022-11-29T19:03:44.572Z,93804.11
2022-11-29T19:08:52.581Z,93797.04
2022-11-29T19:14:04.808Z,93798.97
2022-11-29T19:19:12.614Z,93795.78
2022-11-29T19:24:20.888Z,93811.03
2022-11-29T19:29:28.013Z,93814.02
2022-11-29T19:34:35.529Z,93828.18
2022-11-29T19:39:42.838Z,93822.48
2022-11-29T19:50:02.579Z,93823.72
2022-11-29T19:55:09.291Z,93820.50
2022-11-29T20:00:17.222Z,93825.05
2022-11-29T20:05:25.325Z,93824.30
2022-11-29T20:10:32.395Z,93822.28
2022-11-29T20:15:39.143Z,93825.09
2022-11-29T20:20:46.085Z,93820.13
2022-11-29T20:25:56.051Z,93828.84
2022-11-29T20:31:09.135Z,93830.00
2022-11-29T20:36:52.189Z,93825.31
2022-11-29T20:42:23.070Z,93828.42
2022-11-29T20:47:52.436Z,93829.91
2022-11-29T20:53:32.326Z,93826.38
2022-11-29T20:58:40.979Z,93821.30
2022-11-29T21:03:48.172Z,93830.80
2022-11-29T21:08:56.752Z,93821.05
2022-11-29T21:14:07.651Z,93816.12
2022-11-29T21:19:18.960Z,93816.97
2022-11-29T21:24:46.418Z,93815.55
2022-11-29T21:29:54.533Z,93817.55
2022-11-29T21:35:01.432Z,93811.12
2022-11-29T21:40:09.970Z,93817.30
2022-11-29T21:45:17.128Z,93832.52
2022-11-29T21:50:24.033Z,93826.80
2022-11-29T21:55:32.224Z,93828.60
2022-11-29T22:00:39.345Z,93829.61
2022-11-29T22:05:46.343Z,93827.80
2022-11-29T22:11:03.123Z,93830.10
2022-11-29T22:16:12.638Z,93827.94
2022-11-29T22:21:19.899Z,93831.89
2022-11-29T22:26:28.574Z,93830.25
2022-11-29T22:31:38.075Z,93825.61
2022-11-29T22:36:45.455Z,93818.32
2022-11-29T22:41:55.062Z,93813.39
2022-11-29T22:47:02.080Z,93819.45
2022-11-29T22:52:09.300Z,93813.17
2022-11-29T22:57:16.275Z,93809.77
2022-11-29T23:02:23.143Z,93811.74
2022-11-29T23:07:31.077Z,93808.80
2022-11-29T23:12:37.825Z,93819.71
2022-11-29T23:17:45.152Z,93825.07
2022-11-29T23:22:52.340Z,93824.44
2022-11-29T23:27:59.738Z,93819.37
2022-11-29T23:33:06.824Z,93817.05
2022-11-29T23:38:14.077Z,93817.18
2022-11-29T23:43:20.967Z,93815.56
2022-11-29T23:48:28.237Z,93813.98
2022-11-29T23:53:36.398Z,93814.23
2022-11-29T23:58:43.716Z,93806.06
